Time;durP1;ratioP1;P1;durP2;ratioP2;P2;SDS_P1;SDS_P2;PMS_P1;PMS_P2;Temp;Humidity;BMP_temperature;BMP_pressure;BME280_temperature;BME280_humidity;BME280_pressure;Samples;Min_cycle;Max_cycle;Signal;HPM_P1;HPM_P2
2021/04/16 00:00:59;;;;;;;11.13;5.20;;;;;;;;;;5051795;28;20025;-80
2021/04/16 00:03:25;;;;;;;12.93;5.13;;;;;;;;;;5053190;28;20404;-80
2021/04/16 00:05:50;;;;;;;10.90;5.90;;;;;;;;;;5051756;28;20074;-80
2021/04/16 00:08:19;;;;;;;12.97;5.70;;;;;;;;;;5043625;28;20025;-81
2021/04/16 00:10:46;;;;;;;12.00;6.13;;;;;;;;;;5046834;28;20025;-80
2021/04/16 00:13:12;;;;;;;15.50;5.93;;;;;;;;;;5042252;28;20430;-81
2021/04/16 00:15:39;;;;;;;11.63;5.77;;;;;;;;;;5080559;28;20021;-81
2021/04/16 00:18:05;;;;;;;14.67;5.57;;;;;;;;;;5052855;28;20025;-80
2021/04/16 00:20:30;;;;;;;11.43;5.73;;;;;;;;;;5052624;28;20765;-80
2021/04/16 00:22:56;;;;;;;13.37;5.97;;;;;;;;;;5051644;28;20017;-80
2021/04/16 00:25:22;;;;;;;10.37;6.13;;;;;;;;;;5052673;28;20499;-80
2021/04/16 00:27:48;;;;;;;11.47;5.80;;;;;;;;;;5052833;28;20384;-81
2021/04/16 00:30:14;;;;;;;12.27;5.70;;;;;;;;;;5051027;28;20025;-80
2021/04/16 00:32:39;;;;;;;10.87;5.73;;;;;;;;;;5052762;28;20412;-81
2021/04/16 00:35:06;;;;;;;11.23;5.43;;;;;;;;;;5051335;28;20024;-80
2021/04/16 00:37:31;;;;;;;15.27;5.70;;;;;;;;;;5052646;28;20017;-80
2021/04/16 00:39:56;;;;;;;15.50;6.03;;;;;;;;;;5052657;28;20421;-80
2021/04/16 00:42:21;;;;;;;12.70;5.90;;;;;;;;;;5052436;28;20013;-80
2021/04/16 00:44:47;;;;;;;14.13;5.90;;;;;;;;;;5051134;28;20356;-80
2021/04/16 00:47:14;;;;;;;15.73;6.23;;;;;;;;;;5051128;28;20448;-81
2021/04/16 00:49:41;;;;;;;9.87;5.53;;;;;;;;;;5051222;28;20484;-80
2021/04/16 00:52:07;;;;;;;10.33;5.63;;;;;;;;;;5052484;28;20028;-81
2021/04/16 00:54:34;;;;;;;13.80;5.90;;;;;;;;;;5052612;28;20357;-80
2021/04/16 00:57:00;;;;;;;14.73;6.37;;;;;;;;;;5051176;28;20021;-81
2021/04/16 00:59:28;;;;;;;14.73;5.83;;;;;;;;;;5052295;28;20175;-80
2021/04/16 01:01:53;;;;;;;13.13;6.33;;;;;;;;;;5050925;28;20115;-80
2021/04/16 01:04:19;;;;;;;10.43;5.90;;;;;;;;;;5057892;28;20048;-80
2021/04/16 01:06:44;;;;;;;15.27;6.20;;;;;;;;;;5055169;28;20057;-80
2021/04/16 01:09:10;;;;;;;16.97;5.63;;;;;;;;;;5055074;28;20527;-81
2021/04/16 01:11:35;;;;;;;10.37;5.93;;;;;;;;;;5056494;28;20013;-80
2021/04/16 01:14:02;;;;;;;11.90;6.00;;;;;;;;;;5055101;28;20025;-80
2021/04/16 01:16:31;;;;;;;12.00;6.07;;;;;;;;;;5054757;28;20367;-81
2021/04/16 01:18:58;;;;;;;10.83;6.20;;;;;;;;;;5054988;28;20025;-81
2021/04/16 01:21:26;;;;;;;13.50;6.10;;;;;;;;;;5056799;28;20438;-81
2021/04/16 01:23:55;;;;;;;13.27;5.63;;;;;;;;;;5056640;28;20068;-81
2021/04/16 01:26:22;;;;;;;11.77;6.10;;;;;;;;;;5054723;28;20465;-80
2021/04/16 01:28:48;;;;;;;12.33;6.67;;;;;;;;;;5055865;28;20021;-81
2021/04/16 01:31:15;;;;;;;13.33;6.60;;;;;;;;;;5054737;28;20381;-80
2021/04/16 01:33:41;;;;;;;10.23;5.63;;;;;;;;;;5071299;28;20040;-81
2021/04/16 01:36:08;;;;;;;12.30;5.43;;;;;;;;;;5063709;28;20472;-80
2021/04/16 01:38:34;;;;;;;13.13;6.03;;;;;;;;;;5054498;28;20017;-80
2021/04/16 01:40:59;;;;;;;11.03;5.90;;;;;;;;;;5055882;28;20025;-81
2021/04/16 01:43:26;;;;;;;12.30;5.87;;;;;;;;;;5041638;28;20020;-80
2021/04/16 01:46:24;;;;;;;12.47;6.13;;;;;;;;;;5055795;28;20356;-80
2021/04/16 01:48:58;;;;;;;11.73;5.50;;;;;;;;;;5049244;28;20024;-80
2021/04/16 01:51:25;;;;;;;11.40;5.67;;;;;;;;;;5055679;28;20079;-80
2021/04/16 01:54:22;;;;;;;11.27;5.73;;;;;;;;;;5055286;28;20104;-80
2021/04/16 01:56:49;;;;;;;11.30;5.83;;;;;;;;;;5042944;28;20032;-80
2021/04/16 01:59:15;;;;;;;11.37;5.63;;;;;;;;;;5055279;28;20021;-81
2021/04/16 02:01:43;;;;;;;12.07;5.73;;;;;;;;;;5055289;28;20365;-80
2021/04/16 02:04:08;;;;;;;12.20;5.90;;;;;;;;;;5054028;28;20020;-81
2021/04/16 02:06:34;;;;;;;10.87;5.80;;;;;;;;;;5053882;28;20372;-81
2021/04/16 02:08:59;;;;;;;11.33;5.50;;;;;;;;;;5070345;28;20040;-80
2021/04/16 02:11:25;;;;;;;8.93;5.30;;;;;;;;;;5053956;28;20103;-80
2021/04/16 02:13:50;;;;;;;8.17;5.17;;;;;;;;;;5054826;28;20031;-80
2021/04/16 02:16:15;;;;;;;10.50;5.50;;;;;;;;;;5053526;28;20100;-81
2021/04/16 02:18:40;;;;;;;11.47;5.37;;;;;;;;;;5054833;28;20514;-80
2021/04/16 02:21:06;;;;;;;9.77;5.37;;;;;;;;;;5053594;28;20021;-80
2021/04/16 02:23:31;;;;;;;7.87;5.03;;;;;;;;;;5054938;28;20102;-81
2021/04/16 02:25:56;;;;;;;11.37;5.53;;;;;;;;;;5054898;28;20055;-81
2021/04/16 02:28:21;;;;;;;10.50;5.43;;;;;;;;;;5053600;28;20013;-81
2021/04/16 02:30:46;;;;;;;9.23;5.63;;;;;;;;;;5055051;28;20090;-81
2021/04/16 02:33:12;;;;;;;9.00;5.40;;;;;;;;;;5054969;28;20461;-81
2021/04/16 02:35:37;;;;;;;13.47;5.57;;;;;;;;;;5053584;28;20094;-80
2021/04/16 02:38:02;;;;;;;10.17;5.33;;;;;;;;;;5067657;28;20017;-81
2021/04/16 02:40:28;;;;;;;11.60;5.43;;;;;;;;;;5054277;28;20013;-81
2021/04/16 02:42:53;;;;;;;11.37;5.47;;;;;;;;;;5053404;28;20045;-81
2021/04/16 02:45:20;;;;;;;9.73;5.37;;;;;;;;;;5054654;28;20013;-81
2021/04/16 02:47:45;;;;;;;9.37;5.27;;;;;;;;;;5054803;28;20103;-80
2021/04/16 02:50:12;;;;;;;16.40;5.27;;;;;;;;;;5053339;28;20044;-81
2021/04/16 02:52:37;;;;;;;11.67;5.90;;;;;;;;;;5054448;28;20017;-81
2021/04/16 02:55:03;;;;;;;12.10;4.70;;;;;;;;;;5053035;28;20021;-80
2021/04/16 02:57:28;;;;;;;9.67;5.07;;;;;;;;;;5053100;28;20321;-80
2021/04/16 02:59:54;;;;;;;9.53;4.37;;;;;;;;;;5053069;28;20472;-81
2021/04/16 03:02:19;;;;;;;10.00;5.00;;;;;;;;;;5052348;28;20021;-81
2021/04/16 03:04:44;;;;;;;11.00;5.40;;;;;;;;;;5055924;28;20025;-81
2021/04/16 03:07:09;;;;;;;12.63;5.63;;;;;;;;;;5053999;28;20013;-81
2021/04/16 03:09:35;;;;;;;9.33;5.37;;;;;;;;;;5054221;28;20377;-81
2021/04/16 03:12:00;;;;;;;9.90;5.77;;;;;;;;;;5053964;28;20021;-80
2021/04/16 03:14:25;;;;;;;11.70;5.23;;;;;;;;;;5052596;28;20024;-81
2021/04/16 03:16:50;;;;;;;9.30;5.23;;;;;;;;;;5054084;28;20024;-81
2021/04/16 03:19:16;;;;;;;12.43;5.23;;;;;;;;;;5052949;28;20049;-81
2021/04/16 03:21:41;;;;;;;12.20;6.03;;;;;;;;;;5053860;28;20029;-81
2021/04/16 03:24:07;;;;;;;10.50;5.13;;;;;;;;;;5052729;28;20071;-81
2021/04/16 03:26:32;;;;;;;10.60;5.00;;;;;;;;;;5053099;28;20045;-81
2021/04/16 03:28:59;;;;;;;9.87;5.27;;;;;;;;;;5053759;28;20028;-81
2021/04/16 03:31:25;;;;;;;9.93;5.33;;;;;;;;;;5052454;28;20037;-81
2021/04/16 03:33:50;;;;;;;8.73;5.07;;;;;;;;;;5047512;28;20114;-81
2021/04/16 03:36:15;;;;;;;9.57;4.50;;;;;;;;;;5078384;28;20051;-81
2021/04/16 03:38:41;;;;;;;9.47;4.80;;;;;;;;;;5053574;28;20071;-81
2021/04/16 03:41:06;;;;;;;9.63;5.60;;;;;;;;;;5053700;28;20024;-81
2021/04/16 03:43:31;;;;;;;10.80;4.97;;;;;;;;;;5053495;28;20017;-81
2021/04/16 03:45:56;;;;;;;8.10;4.73;;;;;;;;;;5052405;28;20013;-81
2021/04/16 03:48:22;;;;;;;9.50;4.87;;;;;;;;;;5053547;28;20528;-81
2021/04/16 03:50:47;;;;;;;7.50;4.53;;;;;;;;;;5052987;28;20033;-81
2021/04/16 03:53:12;;;;;;;10.33;4.93;;;;;;;;;;5053455;28;20021;-81
2021/04/16 03:55:38;;;;;;;9.43;4.70;;;;;;;;;;5053261;28;20465;-81
2021/04/16 03:58:04;;;;;;;11.87;4.90;;;;;;;;;;5053452;28;20409;-81
2021/04/16 04:00:31;;;;;;;8.30;4.60;;;;;;;;;;5053198;28;20025;-81
2021/04/16 04:02:57;;;;;;;7.93;4.80;;;;;;;;;;5051922;28;20025;-81
2021/04/16 04:05:23;;;;;;;8.67;4.40;;;;;;;;;;5053064;28;20361;-80
2021/04/16 04:07:48;;;;;;;9.23;4.60;;;;;;;;;;5038006;28;20021;-81
2021/04/16 04:10:17;;;;;;;7.37;4.30;;;;;;;;;;5053102;28;20455;-81
2021/04/16 04:12:42;;;;;;;10.73;4.87;;;;;;;;;;5052880;28;20100;-81
2021/04/16 04:15:07;;;;;;;9.87;4.40;;;;;;;;;;5053243;28;20435;-81
2021/04/16 04:17:35;;;;;;;7.83;4.07;;;;;;;;;;5051546;28;20059;-81
2021/04/16 04:20:00;;;;;;;12.50;4.73;;;;;;;;;;5053002;28;20021;-81
2021/04/16 04:22:26;;;;;;;8.90;4.23;;;;;;;;;;5052998;28;20032;-81
2021/04/16 04:24:51;;;;;;;7.27;3.90;;;;;;;;;;5052867;28;20238;-81
2021/04/16 04:27:17;;;;;;;10.40;4.70;;;;;;;;;;5051732;28;20155;-81
2021/04/16 04:29:43;;;;;;;8.70;4.50;;;;;;;;;;5051526;28;20120;-81
2021/04/16 04:32:09;;;;;;;7.37;4.33;;;;;;;;;;5051631;28;20059;-81
2021/04/16 04:34:35;;;;;;;11.73;4.57;;;;;;;;;;5068065;28;20412;-81
2021/04/16 04:37:01;;;;;;;9.03;4.10;;;;;;;;;;5053950;28;20043;-81
2021/04/16 04:39:29;;;;;;;14.17;4.43;;;;;;;;;;5068122;28;20102;-81
2021/04/16 04:41:54;;;;;;;8.67;4.30;;;;;;;;;;5067764;28;20033;-81
2021/04/16 04:44:20;;;;;;;7.73;4.20;;;;;;;;;;5052794;28;20021;-81
2021/04/16 04:46:45;;;;;;;6.80;4.00;;;;;;;;;;5052361;28;20104;-81
2021/04/16 04:49:11;;;;;;;14.07;4.30;;;;;;;;;;5051293;28;20075;-81
2021/04/16 04:51:37;;;;;;;8.73;4.33;;;;;;;;;;5051265;28;20021;-81
2021/04/16 04:54:03;;;;;;;8.60;4.70;;;;;;;;;;5052520;28;20082;-81
2021/04/16 04:56:28;;;;;;;9.60;4.47;;;;;;;;;;5051276;28;20024;-81
2021/04/16 04:58:53;;;;;;;13.17;4.10;;;;;;;;;;5049887;28;20044;-81
2021/04/16 05:01:19;;;;;;;12.50;4.03;;;;;;;;;;5041606;28;20373;-81
2021/04/16 05:03:44;;;;;;;9.77;3.63;;;;;;;;;;5052366;28;20099;-81
2021/04/16 05:06:09;;;;;;;7.20;4.30;;;;;;;;;;5051158;28;20464;-81
2021/04/16 05:08:34;;;;;;;11.17;4.43;;;;;;;;;;5052511;28;20048;-81
2021/04/16 05:11:01;;;;;;;6.97;4.37;;;;;;;;;;5052371;28;20024;-81
2021/04/16 05:13:26;;;;;;;10.37;3.97;;;;;;;;;;5052339;28;20044;-81
2021/04/16 05:15:51;;;;;;;7.00;3.80;;;;;;;;;;5050960;28;20385;-81
2021/04/16 05:18:17;;;;;;;7.13;3.77;;;;;;;;;;5037078;28;20048;-81
2021/04/16 05:20:42;;;;;;;6.90;4.00;;;;;;;;;;5052367;28;20024;-81
2021/04/16 05:23:07;;;;;;;8.20;4.13;;;;;;;;;;5051079;28;20484;-81
2021/04/16 05:25:32;;;;;;;6.80;3.47;;;;;;;;;;5052303;28;20009;-81
2021/04/16 05:27:57;;;;;;;8.37;4.00;;;;;;;;;;5052382;28;20013;-81
2021/04/16 05:30:23;;;;;;;13.97;3.57;;;;;;;;;;5050537;28;20400;-81
2021/04/16 05:32:48;;;;;;;8.87;4.27;;;;;;;;;;5052100;28;20028;-81
2021/04/16 05:35:14;;;;;;;9.23;3.97;;;;;;;;;;5052071;28;20063;-81
2021/04/16 05:37:39;;;;;;;8.67;4.30;;;;;;;;;;5052149;28;20051;-81
2021/04/16 05:40:05;;;;;;;6.87;3.77;;;;;;;;;;5050342;28;20060;-80
2021/04/16 05:42:31;;;;;;;7.47;4.30;;;;;;;;;;5051975;28;20048;-81
2021/04/16 05:44:59;;;;;;;8.83;4.30;;;;;;;;;;5050848;28;20078;-81
2021/04/16 05:47:24;;;;;;;7.40;3.80;;;;;;;;;;5037037;28;20039;-81
2021/04/16 05:49:50;;;;;;;7.30;3.67;;;;;;;;;;5053134;28;20100;-81
2021/04/16 05:52:15;;;;;;;7.67;4.10;;;;;;;;;;5054939;28;20048;-82
2021/04/16 05:54:40;;;;;;;8.23;4.40;;;;;;;;;;5053724;28;20021;-81
2021/04/16 05:57:05;;;;;;;7.60;4.47;;;;;;;;;;5055158;28;20086;-81
2021/04/16 05:59:31;;;;;;;9.40;4.80;;;;;;;;;;5055390;28;20358;-81
2021/04/16 06:01:56;;;;;;;7.87;4.37;;;;;;;;;;5055362;28;20021;-79
2021/04/16 06:04:29;;;;;;;10.73;4.70;;;;;;;;;;5055363;28;20017;-80
2021/04/16 06:06:54;;;;;;;7.43;3.63;;;;;;;;;;5054333;28;20025;-81
2021/04/16 06:09:19;;;;;;;9.50;4.40;;;;;;;;;;5054286;28;20397;-81
2021/04/16 06:11:44;;;;;;;8.57;4.20;;;;;;;;;;5056200;28;20025;-81
2021/04/16 06:14:10;;;;;;;9.37;4.40;;;;;;;;;;5055743;28;20090;-80
2021/04/16 06:16:35;;;;;;;11.63;4.23;;;;;;;;;;5054409;28;20028;-80
2021/04/16 06:19:00;;;;;;;6.20;3.97;;;;;;;;;;5055269;28;20032;-80
2021/04/16 06:21:25;;;;;;;12.60;4.57;;;;;;;;;;5053806;28;20025;-81
2021/04/16 06:23:51;;;;;;;12.43;6.07;;;;;;;;;;5055047;28;20495;-81
2021/04/16 06:26:16;;;;;;;9.80;5.00;;;;;;;;;;5053693;28;20082;-80
2021/04/16 06:28:41;;;;;;;15.63;4.93;;;;;;;;;;5053706;28;20035;-81
2021/04/16 06:31:06;;;;;;;11.60;4.77;;;;;;;;;;5065270;28;20114;-81
2021/04/16 06:33:33;;;;;;;11.33;4.60;;;;;;;;;;5052212;28;20106;-81
2021/04/16 06:35:59;;;;;;;12.10;4.87;;;;;;;;;;5054996;28;20028;-80
2021/04/16 06:38:27;;;;;;;8.13;4.50;;;;;;;;;;5054567;28;20040;-81
2021/04/16 06:40:52;;;;;;;25.33;10.33;;;;;;;;;;5054781;28;20053;-81
2021/04/16 06:43:19;;;;;;;11.67;7.17;;;;;;;;;;5087015;28;20443;-81
2021/04/16 06:45:49;;;;;;;14.27;5.70;;;;;;;;;;5053217;28;20100;-80
2021/04/16 06:48:15;;;;;;;21.10;7.13;;;;;;;;;;5079903;28;20074;-80
2021/04/16 06:50:41;;;;;;;16.30;7.03;;;;;;;;;;5054552;28;20021;-81
2021/04/16 06:53:18;;;;;;;19.37;9.93;;;;;;;;;;5054491;28;20472;-81
2021/04/16 06:55:50;;;;;;;12.97;6.37;;;;;;;;;;5052820;28;20017;-81
2021/04/16 06:58:17;;;;;;;18.45;5.15;;;;;;;;;;5052858;28;20021;-81
2021/04/16 07:00:47;;;;;;;11.40;5.37;;;;;;;;;;5053077;28;20147;-81
2021/04/16 07:03:12;;;;;;;10.40;5.33;;;;;;;;;;5054439;28;20029;-81
2021/04/16 07:05:39;;;;;;;12.47;5.80;;;;;;;;;;5053946;28;20028;-81
2021/04/16 07:08:05;;;;;;;10.83;5.63;;;;;;;;;;5054242;28;20017;-81
2021/04/16 07:10:32;;;;;;;12.80;5.60;;;;;;;;;;5052412;28;20028;-81
2021/04/16 07:12:58;;;;;;;13.30;5.57;;;;;;;;;;5050478;28;20086;-81
2021/04/16 07:15:28;;;;;;;13.13;4.83;;;;;;;;;;5054321;28;20032;-81
2021/04/16 07:17:54;;;;;;;9.43;4.90;;;;;;;;;;5053920;28;20029;-81
2021/04/16 07:20:22;;;;;;;11.33;5.30;;;;;;;;;;5052744;28;20100;-80
2021/04/16 07:22:51;;;;;;;9.83;5.30;;;;;;;;;;5053913;28;20524;-81
2021/04/16 07:25:24;;;;;;;13.83;4.77;;;;;;;;;;5040145;28;20183;-81
2021/04/16 07:27:51;;;;;;;14.10;5.82;;;;;;;;;;5069242;28;20021;-82
2021/04/16 07:30:45;;;;;;;13.30;4.93;;;;;;;;;;5053332;28;20112;-80
2021/04/16 07:33:23;;;;;;;8.00;4.00;;;;;;;;;;5051225;28;20112;-82
2021/04/16 07:35:48;;;;;;;11.27;4.77;;;;;;;;;;5052462;28;20023;-81
2021/04/16 07:38:20;;;;;;;13.60;5.00;;;;;;;;;;5057754;28;20632;-82
2021/04/16 07:40:46;;;;;;;9.13;5.28;;;;;;;;;;5052335;28;20515;-82
2021/04/16 07:43:14;;;;;;;12.03;5.20;;;;;;;;;;5065980;28;20457;-81
2021/04/16 07:45:44;;;;;;;16.93;5.10;;;;;;;;;;5053166;28;20016;-81
2021/04/16 07:48:19;;;;;;;12.43;5.77;;;;;;;;;;5053477;28;20021;-81
2021/04/16 07:50:46;;;;;;;13.17;6.00;;;;;;;;;;5051887;28;20017;-81
2021/04/16 07:53:30;;;;;;;13.77;5.77;;;;;;;;;;5053368;28;20530;-81
2021/04/16 07:56:33;;;;;;;12.10;5.40;;;;;;;;;;5052905;28;20017;-81
2021/04/16 07:59:04;;;;;;;11.47;5.83;;;;;;;;;;5051129;28;20028;-81
2021/04/16 08:01:34;;;;;;;11.77;6.30;;;;;;;;;;5046307;28;20448;-81
2021/04/16 08:03:59;;;;;;;11.37;5.63;;;;;;;;;;5049539;28;20086;-81
2021/04/16 08:06:26;;;;;;;8.97;4.50;;;;;;;;;;5051724;28;20411;-81
2021/04/16 08:08:51;;;;;;;12.90;5.93;;;;;;;;;;5053072;28;20380;-80
2021/04/16 08:11:19;;;;;;;10.90;5.63;;;;;;;;;;5046868;28;20025;-81
2021/04/16 08:13:45;;;;;;;12.97;5.60;;;;;;;;;;5052789;28;20472;-81
2021/04/16 08:16:19;;;;;;;10.63;4.57;;;;;;;;;;5051873;28;20025;-81
2021/04/16 08:19:00;;;;;;;6.73;4.50;;;;;;;;;;5052841;28;20028;-81
2021/04/16 08:21:25;;;;;;;10.37;5.40;;;;;;;;;;5050923;28;20048;-81
2021/04/16 08:24:01;;;;;;;13.60;6.20;;;;;;;;;;5052903;28;20068;-81
2021/04/16 08:26:29;;;;;;;15.57;5.47;;;;;;;;;;5052660;28;20013;-81
2021/04/16 08:28:58;;;;;;;13.07;5.40;;;;;;;;;;5051648;28;20040;-81
2021/04/16 08:31:27;;;;;;;8.00;4.33;;;;;;;;;;5051295;28;20016;-81
2021/04/16 08:34:12;;;;;;;9.77;5.13;;;;;;;;;;5051476;28;20025;-81
2021/04/16 08:36:39;;;;;;;10.23;5.73;;;;;;;;;;5050941;28;20039;-81
2021/04/16 08:39:11;;;;;;;7.43;4.37;;;;;;;;;;5052620;28;20036;-81
2021/04/16 08:41:56;;;;;;;13.93;5.68;;;;;;;;;;5067929;28;20025;-81
2021/04/16 08:44:23;;;;;;;11.73;5.47;;;;;;;;;;5050950;28;20021;-80
2021/04/16 08:46:50;;;;;;;14.83;6.10;;;;;;;;;;5052135;28;20013;-80
2021/04/16 08:49:32;;;;;;;8.27;4.93;;;;;;;;;;5050365;28;20403;-81
2021/04/16 08:52:01;;;;;;;15.40;6.03;;;;;;;;;;5051478;28;20032;-81
2021/04/16 08:54:31;;;;;;;13.43;5.97;;;;;;;;;;5052433;28;20032;-81
2021/04/16 08:56:59;;;;;;;7.87;5.03;;;;;;;;;;5052127;28;20025;-81
2021/04/16 08:59:26;;;;;;;10.13;5.17;;;;;;;;;;5051243;28;20099;-81
2021/04/16 09:01:56;;;;;;;12.13;5.97;;;;;;;;;;5052391;28;20021;-81
2021/04/16 09:04:39;;;;;;;11.47;5.57;;;;;;;;;;5050643;28;20024;-81
2021/04/16 09:07:04;;;;;;;12.43;5.75;;;;;;;;;;5052548;28;20053;-81
2021/04/16 09:09:40;;;;;;;10.13;5.30;;;;;;;;;;5050843;28;20488;-81
2021/04/16 09:12:06;;;;;;;9.57;5.33;;;;;;;;;;5051054;28;20384;-81
2021/04/16 09:14:34;;;;;;;10.63;5.27;;;;;;;;;;5052033;28;20087;-81
2021/04/16 09:17:00;;;;;;;12.20;5.10;;;;;;;;;;5052549;28;20082;-81
2021/04/16 09:19:25;;;;;;;10.03;5.20;;;;;;;;;;5050288;28;20486;-81
2021/04/16 09:22:06;;;;;;;9.13;5.20;;;;;;;;;;5051841;28;20148;-81
2021/04/16 09:24:44;;;;;;;8.30;4.83;;;;;;;;;;5053898;28;20028;-81
2021/04/16 09:27:29;;;;;;;12.17;4.70;;;;;;;;;;5047825;28;20108;-81
2021/04/16 09:30:03;;;;;;;12.17;5.87;;;;;;;;;;5053951;28;20377;-81
2021/04/16 09:32:34;;;;;;;9.73;4.53;;;;;;;;;;5054361;28;20086;-81
2021/04/16 09:35:06;;;;;;;9.70;5.00;;;;;;;;;;5067074;28;20029;-80
2021/04/16 09:37:36;;;;;;;13.00;5.00;;;;;;;;;;5054783;28;20013;-80
2021/04/16 09:40:17;;;;;;;10.57;4.17;;;;;;;;;;5056286;28;20083;-80
2021/04/16 09:42:53;;;;;;;8.77;4.53;;;;;;;;;;5055721;28;20033;-80
2021/04/16 09:45:22;;;;;;;8.07;4.27;;;;;;;;;;5048267;28;20036;-80
2021/04/16 09:47:49;;;;;;;9.57;4.60;;;;;;;;;;5055005;28;20013;-81
2021/04/16 09:50:20;;;;;;;9.37;4.63;;;;;;;;;;5053578;28;20082;-81
2021/04/16 09:52:47;;;;;;;13.23;6.40;;;;;;;;;;5052592;28;20078;-81
2021/04/16 09:55:30;;;;;;;10.27;4.57;;;;;;;;;;5054900;28;20032;-81
2021/04/16 09:57:56;;;;;;;12.03;3.97;;;;;;;;;;5054967;28;20826;-81
2021/04/16 10:00:59;;;;;;;7.30;3.30;;;;;;;;;;5053644;28;20017;-80
2021/04/16 10:03:40;;;;;;;7.03;4.40;;;;;;;;;;5054195;28;20045;-81
2021/04/16 10:06:28;;;;;;;8.13;4.10;;;;;;;;;;5054593;28;20521;-79
2021/04/16 10:08:59;;;;;;;6.63;3.17;;;;;;;;;;5050786;28;20032;-79
2021/04/16 10:11:24;;;;;;;5.53;2.70;;;;;;;;;;5053935;28;20456;-80
2021/04/16 10:13:50;;;;;;;5.30;2.83;;;;;;;;;;5054307;28;20113;-80
2021/04/16 10:16:19;;;;;;;9.98;4.85;;;;;;;;;;5053860;28;20013;-79
2021/04/16 10:18:45;;;;;;;11.38;4.65;;;;;;;;;;5043076;28;20448;-80
2021/04/16 10:21:17;;;;;;;12.52;3.63;;;;;;;;;;5053497;28;20029;-80
2021/04/16 10:23:42;;;;;;;6.60;3.47;;;;;;;;;;5052711;28;20215;-80
2021/04/16 10:27:51;;;;;;;9.15;3.42;;;;;;;;;;5054414;28;20207;-80
2021/04/16 10:36:06;;;;;;;5.20;2.83;;;;;;;;;;5054157;28;20102;-80
2021/04/16 10:44:55;;;;;;;11.23;2.80;;;;;;;;;;5045912;28;20541;-79
2021/04/16 10:53:07;;;;;;;5.95;2.53;;;;;;;;;;5042767;28;20056;-80
2021/04/16 11:12:33;;;;;;;5.55;2.35;;;;;;;;;;5041476;28;20509;-80
2021/04/16 11:31:34;;;;;;;5.47;2.58;;;;;;;;;;5052884;28;20479;-79
2021/04/16 12:39:52;;;;;;;3.80;2.25;;;;;;;;;;5052509;28;20071;-79
2021/04/16 12:42:17;;;;;;;3.85;2.33;;;;;;;;;;5051780;28;20017;-80
2021/04/16 12:44:53;;;;;;;6.18;1.95;;;;;;;;;;5050707;28;20017;-80
2021/04/16 12:47:22;;;;;;;6.03;2.10;;;;;;;;;;5050626;28;20062;-80
2021/04/16 12:49:47;;;;;;;5.90;2.25;;;;;;;;;;5051873;28;20400;-80
2021/04/16 12:52:13;;;;;;;3.70;1.60;;;;;;;;;;5050818;28;20025;-79
2021/04/16 12:54:40;;;;;;;2.97;1.80;;;;;;;;;;5050167;28;20025;-80
2021/04/16 12:57:06;;;;;;;7.47;2.45;;;;;;;;;;5042833;28;20037;-79
2021/04/16 12:59:31;;;;;;;3.47;1.83;;;;;;;;;;5039187;28;20025;-80
2021/04/16 13:01:57;;;;;;;4.00;2.30;;;;;;;;;;5037635;28;20032;-80
2021/04/16 13:04:24;;;;;;;3.38;1.70;;;;;;;;;;5043705;28;20159;-80
2021/04/16 13:06:49;;;;;;;4.85;1.55;;;;;;;;;;5046635;28;20020;-80
2021/04/16 13:09:16;;;;;;;3.28;1.88;;;;;;;;;;5051322;28;20028;-80
2021/04/16 13:11:42;;;;;;;2.83;1.83;;;;;;;;;;5050421;28;20021;-81
2021/04/16 13:14:07;;;;;;;3.00;1.80;;;;;;;;;;5049337;28;20374;-80
2021/04/16 13:16:32;;;;;;;6.25;1.60;;;;;;;;;;5043447;28;20075;-81
2021/04/16 13:19:00;;;;;;;2.47;1.70;;;;;;;;;;5052506;28;20103;-80
2021/04/16 13:21:28;;;;;;;3.47;1.95;;;;;;;;;;5051152;28;20435;-80
2021/04/16 13:23:53;;;;;;;3.60;2.35;;;;;;;;;;5051914;28;20029;-80
2021/04/16 13:26:19;;;;;;;4.25;1.60;;;;;;;;;;5051874;28;20548;-80
2021/04/16 13:28:45;;;;;;;5.20;1.70;;;;;;;;;;5052191;28;20021;-80
2021/04/16 13:31:10;;;;;;;3.80;2.22;;;;;;;;;;5046001;28;20495;-80
2021/04/16 13:33:39;;;;;;;5.65;2.03;;;;;;;;;;5040770;28;20017;-80
2021/04/16 13:36:05;;;;;;;6.60;2.42;;;;;;;;;;5051975;28;20412;-80
2021/04/16 13:38:31;;;;;;;7.13;1.90;;;;;;;;;;5051862;28;20476;-80
2021/04/16 13:40:57;;;;;;;5.38;2.50;;;;;;;;;;5052081;28;20151;-80
2021/04/16 13:43:23;;;;;;;5.78;2.35;;;;;;;;;;5051844;28;20024;-80
2021/04/16 13:45:49;;;;;;;3.75;1.70;;;;;;;;;;5050627;28;20017;-80
2021/04/16 13:48:15;;;;;;;4.78;2.42;;;;;;;;;;5059786;28;20021;-80
2021/04/16 13:50:40;;;;;;;6.05;2.30;;;;;;;;;;5051768;28;20097;-80
2021/04/16 13:53:06;;;;;;;2.90;1.60;;;;;;;;;;5052029;28;20021;-80
2021/04/16 13:55:31;;;;;;;2.75;1.80;;;;;;;;;;5051766;28;20502;-80
2021/04/16 13:57:57;;;;;;;6.13;2.40;;;;;;;;;;5051809;28;20031;-80
2021/04/16 14:00:23;;;;;;;7.20;2.10;;;;;;;;;;5050391;28;20468;-80
2021/04/16 14:02:50;;;;;;;8.55;2.90;;;;;;;;;;5051693;28;20025;-79
2021/04/16 14:05:17;;;;;;;3.88;2.38;;;;;;;;;;5051419;28;20056;-80
2021/04/16 14:07:42;;;;;;;3.28;2.08;;;;;;;;;;5051552;28;20014;-80
2021/04/16 14:10:08;;;;;;;4.25;1.52;;;;;;;;;;5051696;28;20614;-80
2021/04/16 14:12:34;;;;;;;3.70;2.15;;;;;;;;;;5055127;28;20414;-80
2021/04/16 14:15:00;;;;;;;6.63;3.70;;;;;;;;;;5055474;28;20033;-80
2021/04/16 14:17:27;;;;;;;3.83;1.95;;;;;;;;;;5055428;28;20484;-80
2021/04/16 14:19:56;;;;;;;6.50;1.90;;;;;;;;;;5055087;28;20021;-80
2021/04/16 14:22:25;;;;;;;6.18;2.78;;;;;;;;;;5055061;28;20546;-80
2021/04/16 14:24:50;;;;;;;3.25;2.10;;;;;;;;;;5054924;28;20032;-80
2021/04/16 14:27:15;;;;;;;13.25;2.97;;;;;;;;;;5055103;28;20431;-80
2021/04/16 14:29:40;;;;;;;7.95;2.92;;;;;;;;;;5054630;28;20053;-80
2021/04/16 14:32:09;;;;;;;6.20;2.78;;;;;;;;;;5055101;28;20017;-80
2021/04/16 14:34:34;;;;;;;4.60;2.95;;;;;;;;;;5055168;28;20050;-80
2021/04/16 14:36:59;;;;;;;6.60;2.95;;;;;;;;;;5053559;28;20028;-80
2021/04/16 14:39:25;;;;;;;5.43;3.17;;;;;;;;;;5055053;28;20424;-80
2021/04/16 14:41:54;;;;;;;7.47;2.92;;;;;;;;;;5054251;28;20067;-80
2021/04/16 14:44:20;;;;;;;6.63;2.80;;;;;;;;;;5054898;28;20032;-80
2021/04/16 14:46:49;;;;;;;4.10;1.52;;;;;;;;;;5054335;28;20021;-80
2021/04/16 14:49:14;;;;;;;8.52;2.75;;;;;;;;;;5054419;28;20045;-80
2021/04/16 14:51:41;;;;;;;7.57;2.92;;;;;;;;;;5054719;28;20052;-80
2021/04/16 14:54:09;;;;;;;7.90;3.20;;;;;;;;;;5054259;28;20056;-80
2021/04/16 14:56:34;;;;;;;8.38;3.25;;;;;;;;;;5052961;28;20025;-80
2021/04/16 14:59:02;;;;;;;4.10;2.33;;;;;;;;;;5054355;28;20087;-80
2021/04/16 15:01:29;;;;;;;5.25;2.00;;;;;;;;;;5053968;28;20021;-79
2021/04/16 15:03:55;;;;;;;4.53;2.40;;;;;;;;;;5054167;28;20056;-80
2021/04/16 15:06:21;;;;;;;5.28;2.60;;;;;;;;;;5054093;28;20052;-80
2021/04/16 15:08:52;;;;;;;4.50;2.65;;;;;;;;;;5052787;28;20028;-80
2021/04/16 15:11:19;;;;;;;4.78;2.78;;;;;;;;;;5053918;28;20028;-80
2021/04/16 15:13:44;;;;;;;7.03;3.53;;;;;;;;;;5054142;28;20092;-80
2021/04/16 15:16:13;;;;;;;5.82;2.35;;;;;;;;;;5053828;28;20053;-80
2021/04/16 15:18:39;;;;;;;8.77;2.70;;;;;;;;;;5054113;28;20024;-80
2021/04/16 15:21:06;;;;;;;4.78;2.63;;;;;;;;;;5052943;28;20031;-80
2021/04/16 15:23:31;;;;;;;6.68;2.97;;;;;;;;;;5053489;28;20057;-80
2021/04/16 15:25:57;;;;;;;7.03;2.63;;;;;;;;;;5053838;28;20401;-80
2021/04/16 15:28:22;;;;;;;4.40;2.53;;;;;;;;;;5053798;28;20467;-80
2021/04/16 15:30:51;;;;;;;6.68;2.33;;;;;;;;;;5052543;28;20036;-80
2021/04/16 15:33:24;;;;;;;5.93;2.55;;;;;;;;;;5051383;28;20028;-79
2021/04/16 15:46:56;;;;;;;5.40;2.13;;;;;;;;;;5052991;28;20071;-79
2021/04/16 15:49:22;;;;;;;4.70;2.30;;;;;;;;;;5052069;28;20104;-79
2021/04/16 15:51:47;;;;;;;10.00;2.15;;;;;;;;;;5049411;28;20128;-79
2021/04/16 15:54:13;;;;;;;13.25;2.00;;;;;;;;;;5052676;28;20570;-79
2021/04/16 15:56:41;;;;;;;3.90;2.45;;;;;;;;;;5052249;28;20476;-79
2021/04/16 15:59:15;;;;;;;6.97;2.55;;;;;;;;;;5052262;28;20045;-79
2021/04/16 16:01:41;;;;;;;5.53;2.67;;;;;;;;;;5050405;28;20127;-79
2021/04/16 16:04:08;;;;;;;3.17;1.92;;;;;;;;;;5052911;28;20045;-79
2021/04/16 16:06:34;;;;;;;5.25;2.20;;;;;;;;;;5051195;28;20032;-79
2021/04/16 16:08:59;;;;;;;3.30;1.92;;;;;;;;;;5052483;28;20029;-79
2021/04/16 16:11:34;;;;;;;3.90;2.45;;;;;;;;;;5052945;28;20479;-79
2021/04/16 16:14:00;;;;;;;5.85;1.65;;;;;;;;;;5052747;28;20380;-79
2021/04/16 16:16:25;;;;;;;4.15;2.03;;;;;;;;;;5052913;28;20024;-80
2021/04/16 16:18:51;;;;;;;5.05;2.75;;;;;;;;;;5052595;28;20110;-79
2021/04/16 16:21:17;;;;;;;7.07;2.85;;;;;;;;;;5050446;28;20486;-79
2021/04/16 16:23:43;;;;;;;7.60;3.25;;;;;;;;;;5052342;28;20071;-79
2021/04/16 16:26:16;;;;;;;3.45;1.95;;;;;;;;;;5051885;28;20118;-79
2021/04/16 16:28:42;;;;;;;4.28;2.80;;;;;;;;;;5049674;28;20380;-79
2021/04/16 16:31:07;;;;;;;6.07;2.80;;;;;;;;;;5052732;28;20017;-79
2021/04/16 16:33:32;;;;;;;5.80;2.80;;;;;;;;;;5050824;28;20013;-79
2021/04/16 16:35:59;;;;;;;4.72;2.78;;;;;;;;;;5051030;28;20053;-79
2021/04/16 16:38:24;;;;;;;7.30;2.35;;;;;;;;;;5038394;28;20147;-79
2021/04/16 16:40:50;;;;;;;5.88;2.90;;;;;;;;;;5051544;28;20024;-80
2021/04/16 16:43:30;;;;;;;5.55;2.47;;;;;;;;;;5052121;28;20357;-79
2021/04/16 16:45:57;;;;;;;5.72;2.72;;;;;;;;;;5045233;28;20028;-80
2021/04/16 16:48:23;;;;;;;6.95;2.65;;;;;;;;;;5052250;28;20025;-80
2021/04/16 16:50:49;;;;;;;6.43;2.60;;;;;;;;;;5052455;28;20017;-80